Ressurser
NettlenkerNedenfor følger en lenkesamling med ulike ressurser som er nyttige både for nåværende og kommende piloter.
Antall som skal vises: 
Nr. Nettlenke Treff
1   Link   Airplane Flying Handbook
Bok i PDF versjon som gir en innføring i flyging. Utgitt av FAA.
2998
2   Link   VOR, NDB, HSI og RMI simulator
Side med utallige flash-baserte simulatorer.
3643
3   Link   Pilot's Handbook of Aeronautical Knowledge
FAA lærebok om fly-relaterte temaer.
2423
4   Link   AOPA Air Safety Foundation
Gratis flash-baserte pilot kurs fra AOPA.
2357
5   Link   Pilot Friend
Side med mange nyttige ressurser: vær, flytyper, motortyper, flyplanlegging, flymedisin m.m.
2679
6   Link   Bernoullis prinsipp
Side med animert og fyldig informasjon om Bernoullis prinsipp
2698
7   Link   Seaplane, Skiplane, and Float/Ski Equipped Helicopter Operations Handbook
FAA bok som omhandler ski og sjøflyging.
2344
 
METAR
2018/04/20 17:50 ENCN 201750Z 32009KT 280V350 9999 FEW045 17/05 Q1014
TAF
2018/04/20 18:38 TAF ENCN 201700Z 2018/2021 30008KT 9999 FEW040
LN-KFK
Operativ VFR-natt
VFR dag
05:19 - 21:35
Brannvakt
Inaktiv
Banner
Banner
Banner
Banner
Banner